Circle Line Brooklyn — WDE8160 — position and weather

sailwx.info

Track history (hours):
 
Tides and Currents Weather Stations Pressure Air Temp Water Temp Dewpoint Dewpoint Depression Visibility Wind Speed Wind Dir Waves Ship Positions

Circle Line Brooklyn

Owner: Circle Line Sight Seeing Yachts Inc., New York, NY. More information available from US FCC via Universal Licensing System and Coast Guard Vessel Documentation Center.

Last reported at 2017-Apr-25 20:30 UTC. Time now 2017-Apr-26 09:43 UTC.
Position N 40°46' W 074°00'.

MMSI: 367402250.

Date/timePositionNaut miles runAvg speedWind from/ knotsBaromVisibWave heightAir tempDewpointWater temp
2017-Apr-25 20:30N 40°46' W 074°00'611.1
2017-Apr-25 20:00N 40°51' W 073°57'5 5.6
2017-Apr-25 19:10N 40°46' W 073°57'212.6
2017-Apr-25 19:00N 40°45' W 073°58'5 9.2
2017-Apr-25 18:30N 40°41' W 074°02'5 9.2
2017-Apr-25 18:00N 40°46' W 074°00'0 0.0
2017-Apr-25 17:30N 40°46' W 074°00'0 0.0
2017-Apr-25 17:00N 40°46' W 074°00'0 0.0
2017-Apr-25 16:30N 40°46' W 074°00'3 5.2
2017-Apr-25 16:00N 40°43' W 074°02'4 8.3
2017-Apr-25 15:30N 40°46' W 073°57'2 4.1
2017-Apr-25 15:00N 40°44' W 073°58'2 2.5
2017-Apr-25 14:00N 40°46' W 074°00'0 0.0
2017-Apr-25 13:30N 40°46' W 074°00'0 0.0
2017-Apr-25 13:00N 40°46' W 074°00'0 0.0
2017-Apr-25 12:30N 40°46' W 074°00'0 0.0
2017-Apr-25 01:12N 40°46' W 074°00'0 0.0
2017-Apr-25 01:00N 40°46' W 074°00'4 7.2
2017-Apr-25 00:30N 40°43' W 074°02'2 4.1
2017-Apr-25 00:00N 40°43' W 073°59'1 1.8
2017-Apr-24 23:30N 40°42' W 074°00'4 7.5
2017-Apr-24 23:00N 40°46' W 074°00'0 0.0
2017-Apr-24 22:30N 40°46' W 074°00'0 0.0
2017-Apr-24 22:00N 40°46' W 074°00'0 0.0
2017-Apr-24 21:30N 40°46' W 074°00'0 0.0
2017-Apr-24 21:00N 40°46' W 074°00'0 0.0
2017-Apr-24 20:30N 40°46' W 074°00'611.4
2017-Apr-24 20:00N 40°51' W 073°57'5 5.9
2017-Apr-24 19:07N 40°46' W 073°57'213.4
2017-Apr-24 19:00N 40°44' W 073°58'5 9.3
2017-Apr-24 18:31N 40°41' W 074°02'5 9.2
2017-Apr-24 18:00N 40°46' W 074°00'0 0.0
2017-Apr-24 17:30N 40°46' W 074°00'0 0.0
2017-Apr-24 17:00N 40°46' W 074°00'0 0.0
2017-Apr-24 16:30N 40°46' W 074°00'714.1
2017-Apr-24 16:00N 40°52' W 073°56'6 7.9
2017-Apr-24 15:12N 40°46' W 073°57'210.7
2017-Apr-24 15:00N 40°44' W 073°58'4 7.9
2017-Apr-24 14:30N 40°42' W 074°02'4 4.5
2017-Apr-24 13:30N 40°46' W 074°00'0 0.0
2017-Apr-24 13:00N 40°46' W 074°00'0 0.0
2017-Apr-24 12:29N 40°46' W 074°00'0 0.0
2017-Apr-24 01:23N 40°46' W 074°00'0 0.0
2017-Apr-24 00:59N 40°46' W 074°00'3 7.0
2017-Apr-24 00:30N 40°43' W 074°02'2 3.3
2017-Apr-24 00:00N 40°42' W 073°60'0 0.3
2017-Apr-23 23:31N 40°42' W 073°59'3 6.9
2017-Apr-23 23:00N 40°46' W 074°00'0 0.0
2017-Apr-23 22:26N 40°46' W 074°00'0 0.0
2017-Apr-23 21:59N 40°46' W 074°00'0 0.0
2017-Apr-23 21:29N 40°46' W 074°00'0 0.0
2017-Apr-23 20:59N 40°46' W 074°00'0 0.0
2017-Apr-23 20:29N 40°46' W 074°00'4 8.2
2017-Apr-23 20:00N 40°49' W 073°58'2 2.4
2017-Apr-23 19:10N 40°48' W 073°56'312.2
2017-Apr-23 18:58N 40°46' W 073°57'612.7
2017-Apr-23 18:30N 40°41' W 074°02'5 8.9
2017-Apr-23 18:00N 40°46' W 074°00'0 0.0
2017-Apr-23 17:28N 40°46' W 074°00'0 0.0
2017-Apr-23 16:58N 40°46' W 074°00'0 0.0
2017-Apr-23 16:28N 40°46' W 074°00'511.2
2017-Apr-23 16:00N 40°51' W 073°57'5 5.8
2017-Apr-23 15:07N 40°45' W 073°57'112.4
2017-Apr-23 15:00N 40°44' W 073°58'2 2.3
2017-Apr-23 14:00N 40°46' W 074°00'0 0.0
2017-Apr-23 13:30N 40°46' W 074°00'0 0.0
2017-Apr-23 02:31N 40°46' W 074°00'0 0.0
2017-Apr-23 02:30N 40°46' W 074°00'3 6.3
2017-Apr-23 02:00N 40°43' W 074°01'3 6.1
2017-Apr-23 01:30N 40°44' W 073°58'510.1
2017-Apr-23 01:01N 40°41' W 074°03'510.0
2017-Apr-23 00:30N 40°46' W 074°00'0 0.2
2017-Apr-23 00:00N 40°46' W 074°00'0 0.0
2017-Apr-22 23:30N 40°46' W 074°00'0 0.0
2017-Apr-22 23:00N 40°46' W 074°00'0 0.0
2017-Apr-22 22:30N 40°46' W 074°00'0 0.0
2017-Apr-22 22:00N 40°46' W 074°00'0 0.0
2017-Apr-22 21:30N 40°46' W 074°00'0 0.0
2017-Apr-22 21:01N 40°46' W 074°00'0 0.0
2017-Apr-22 20:30N 40°46' W 074°00'0 0.0
2017-Apr-22 20:00N 40°46' W 074°00'0 0.0
2017-Apr-22 19:29N 40°46' W 074°00'0 0.0
2017-Apr-22 19:00N 40°46' W 074°00'0 0.0
2017-Apr-22 18:30N 40°46' W 074°00'4 7.6
2017-Apr-22 18:00N 40°42' W 074°00'2 3.5
2017-Apr-22 17:30N 40°40' W 074°01'1 2.4
2017-Apr-22 17:00N 40°41' W 074°03'5 9.9
2017-Apr-22 16:30N 40°46' W 074°00'0 0.0
2017-Apr-22 16:00N 40°46' W 074°00'1 1.6
2017-Apr-22 15:30N 40°45' W 074°01'4 7.3
2017-Apr-22 15:00N 40°42' W 074°02'4 8.1
2017-Apr-22 14:28N 40°46' W 074°00'0 0.0
2017-Apr-22 13:28N 40°46' W 074°00'0 0.0
2017-Apr-21 20:26N 40°46' W 074°00'0 0.1
2017-Apr-21 20:00N 40°46' W 074°00'0 0.0
2017-Apr-21 19:30N 40°46' W 074°00'0 0.0
2017-Apr-21 19:00N 40°46' W 074°00'0 0.0
2017-Apr-21 18:30N 40°46' W 074°00'0 0.0
2017-Apr-21 18:00N 40°46' W 074°00'4 7.8
2017-Apr-21 17:30N 40°42' W 074°01'2 4.3
2017-Apr-21 17:00N 40°41' W 074°03'3 5.9
2017-Apr-21 16:30N 40°39' W 074°06'2 3.5
2017-Apr-21 16:00N 40°38' W 074°09'2 4.8
2017-Apr-21 15:30N 40°38' W 074°12'2 3.9
2017-Apr-21 14:59N 40°39' W 074°09'2 4.6
2017-Apr-21 14:29N 40°39' W 074°06'8 8.4
2017-Apr-21 13:30N 40°46' W 074°00'0 0.4
2017-Apr-21 13:00N 40°46' W 074°00'0 0.0
2017-Apr-21 12:30N 40°46' W 074°00'0 0.0
2017-Apr-21 12:00N 40°46' W 074°00'0 0.0
2017-Apr-20 23:01N 40°46' W 074°00'0 0.0
2017-Apr-20 22:58N 40°46' W 074°00'0 0.0
2017-Apr-20 22:28N 40°46' W 074°00'0 0.0
2017-Apr-20 21:58N 40°46' W 074°00'0 0.0
2017-Apr-20 21:28N 40°46' W 074°00'0 0.0
2017-Apr-20 20:58N 40°46' W 074°00'0 0.0
2017-Apr-20 20:28N 40°46' W 074°00'0 0.0
2017-Apr-20 19:58N 40°46' W 074°00'0 0.0
2017-Apr-20 19:28N 40°46' W 074°00'0 0.0
2017-Apr-20 18:58N 40°46' W 074°00'0 0.0
2017-Apr-19 00:59N 40°46' W 074°00'4 8.7
2017-Apr-19 00:30N 40°42' W 074°02'4 7.1
2017-Apr-19 00:01N 40°44' W 073°58'3 6.0
2017-Apr-18 23:30N 40°42' W 074°01'4 7.9
2017-Apr-18 23:00N 40°46' W 074°00'0 0.0
2017-Apr-18 22:28N 40°46' W 074°00'0 0.0
2017-Apr-18 21:58N 40°46' W 074°00'0 0.0
2017-Apr-18 21:28N 40°46' W 074°00'0 0.0
2017-Apr-18 20:58N 40°46' W 074°00'0 0.0
2017-Apr-18 20:25N 40°46' W 074°00'512.4
2017-Apr-18 20:00N 40°51' W 073°57'4 4.8
2017-Apr-18 19:04N 40°46' W 073°57'112.6
2017-Apr-18 19:00N 40°45' W 073°57'611.9
2017-Apr-18 18:30N 40°41' W 074°03'5 9.7
2017-Apr-18 17:59N 40°46' W 074°00'0 0.0
2017-Apr-18 17:29N 40°46' W 074°00'0 0.0
2017-Apr-18 16:59N 40°46' W 074°00'1 2.3
2017-Apr-18 16:31N 40°47' W 073°60'2 1.7
2017-Apr-18 15:07N 40°46' W 073°57'110.9
2017-Apr-18 15:00N 40°45' W 073°58'4 9.0
2017-Apr-18 14:30N 40°42' W 074°02'5 4.3
2017-Apr-18 13:28N 40°46' W 074°00'0 0.0
2017-Apr-18 12:58N 40°46' W 074°00'0 0.0
2017-Apr-18 01:37N 40°46' W 074°00'0 0.0
2017-Apr-18 01:30N 40°46' W 074°00'0 0.0
2017-Apr-18 01:00N 40°46' W 074°00'3 5.5
2017-Apr-18 00:30N 40°43' W 074°02'2 3.2
2017-Apr-18 00:00N 40°42' W 073°60'0 0.5
2017-Apr-17 23:31N 40°42' W 073°60'3 5.9
2017-Apr-17 22:55N 40°46' W 074°00'0 0.0
2017-Apr-17 22:28N 40°46' W 074°00'0 0.0
2017-Apr-17 21:58N 40°46' W 074°00'0 0.0
2017-Apr-17 21:28N 40°46' W 074°00'0 0.0
2017-Apr-17 20:59N 40°46' W 074°00'3 7.1
2017-Apr-17 20:30N 40°42' W 073°59'3 6.2
2017-Apr-17 20:00N 40°41' W 074°03'5 9.9
2017-Apr-17 19:30N 40°46' W 074°00'0 0.0
2017-Apr-17 18:58N 40°46' W 074°00'0 0.0
2017-Apr-17 18:30N 40°46' W 074°00'3 7.0
2017-Apr-17 18:01N 40°43' W 073°59'4 7.4
2017-Apr-17 17:31N 40°39' W 074°01'3 5.2
2017-Apr-17 17:00N 40°42' W 074°02'4 8.0
2017-Apr-17 16:29N 40°46' W 074°00'0 0.0
2017-Apr-17 15:59N 40°46' W 074°00'0 0.6
2017-Apr-17 15:30N 40°46' W 074°00'4 8.6
2017-Apr-17 15:01N 40°42' W 074°02'4 4.5
2017-Apr-17 14:00N 40°46' W 074°00'0 0.0
2017-Apr-17 13:30N 40°46' W 074°00'0 0.0
2017-Apr-17 13:00N 40°46' W 074°00'0 0.0
2017-Apr-16 20:27N 40°46' W 074°00'4 8.4
2017-Apr-16 20:01N 40°42' W 074°00'1 2.6
2017-Apr-16 19:30N 40°41' W 074°02'5 8.8
2017-Apr-16 19:00N 40°46' W 074°00'0 0.0
2017-Apr-16 18:28N 40°46' W 074°00'0 0.3
2017-Apr-16 18:00N 40°46' W 074°00'3 6.6
2017-Apr-16 17:30N 40°43' W 073°58'4 9.0
2017-Apr-16 17:01N 40°39' W 074°02'3 5.6
2017-Apr-16 16:30N 40°42' W 074°02'4 8.2
2017-Apr-16 16:00N 40°46' W 074°00'0 0.0
2017-Apr-16 15:30N 40°46' W 074°00'2 4.5
2017-Apr-16 15:01N 40°44' W 074°01'2 2.1
2017-Apr-16 13:58N 40°46' W 074°00'0 0.0
2017-Apr-16 01:20N 40°46' W 074°00'0 0.0
2017-Apr-16 01:00N 40°46' W 074°00'3 5.3
2017-Apr-16 00:30N 40°43' W 074°01'2 3.2
2017-Apr-16 00:00N 40°42' W 074°00'1 1.6
2017-Apr-15 23:31N 40°42' W 073°59'3 6.9
2017-Apr-15 23:00N 40°46' W 074°00'0 0.0
2017-Apr-15 22:30N 40°46' W 074°00'0 0.0
2017-Apr-15 22:00N 40°46' W 074°00'0 0.0
2017-Apr-15 21:30N 40°46' W 074°00'0 0.0
2017-Apr-15 21:00N 40°46' W 074°00'3 6.4
2017-Apr-15 20:31N 40°43' W 074°01'  
Track history (hours):
 
Tides and Currents Weather Stations Pressure Air Temp Water Temp Dewpoint Dewpoint Depression Visibility Wind Speed Wind Dir Waves Ship Positions

Circle Line Brooklyn

Owner: Circle Line Sight Seeing Yachts Inc., New York, NY. More information available from US FCC via Universal Licensing System and Coast Guard Vessel Documentation Center.

Last reported at 2017-Apr-25 20:30 UTC. Time now 2017-Apr-26 09:43 UTC.
Position N 40°46' W 074°00'.

MMSI: 367402250.

Date/timePositionNaut miles runAvg speedWind from/ knotsBaromVisibWave heightAir tempDewpointWater temp
2017-Apr-25 20:30N 40°46' W 074°00'611.1
2017-Apr-25 20:00N 40°51' W 073°57'5 5.6
2017-Apr-25 19:10N 40°46' W 073°57'212.6
2017-Apr-25 19:00N 40°45' W 073°58'5 9.2
2017-Apr-25 18:30N 40°41' W 074°02'5 9.2
2017-Apr-25 18:00N 40°46' W 074°00'0 0.0
2017-Apr-25 17:30N 40°46' W 074°00'0 0.0
2017-Apr-25 17:00N 40°46' W 074°00'0 0.0
2017-Apr-25 16:30N 40°46' W 074°00'3 5.2
2017-Apr-25 16:00N 40°43' W 074°02'4 8.3
2017-Apr-25 15:30N 40°46' W 073°57'2 4.1
2017-Apr-25 15:00N 40°44' W 073°58'2 2.5
2017-Apr-25 14:00N 40°46' W 074°00'0 0.0
2017-Apr-25 13:30N 40°46' W 074°00'0 0.0
2017-Apr-25 13:00N 40°46' W 074°00'0 0.0
2017-Apr-25 12:30N 40°46' W 074°00'0 0.0
2017-Apr-25 01:12N 40°46' W 074°00'0 0.0
2017-Apr-25 01:00N 40°46' W 074°00'4 7.2
2017-Apr-25 00:30N 40°43' W 074°02'2 4.1
2017-Apr-25 00:00N 40°43' W 073°59'1 1.8
2017-Apr-24 23:30N 40°42' W 074°00'4 7.5
2017-Apr-24 23:00N 40°46' W 074°00'0 0.0
2017-Apr-24 22:30N 40°46' W 074°00'0 0.0
2017-Apr-24 22:00N 40°46' W 074°00'0 0.0
2017-Apr-24 21:30N 40°46' W 074°00'0 0.0
2017-Apr-24 21:00N 40°46' W 074°00'0 0.0
2017-Apr-24 20:30N 40°46' W 074°00'611.4
2017-Apr-24 20:00N 40°51' W 073°57'5 5.9
2017-Apr-24 19:07N 40°46' W 073°57'213.4
2017-Apr-24 19:00N 40°44' W 073°58'5 9.3
2017-Apr-24 18:31N 40°41' W 074°02'5 9.2
2017-Apr-24 18:00N 40°46' W 074°00'0 0.0
2017-Apr-24 17:30N 40°46' W 074°00'0 0.0
2017-Apr-24 17:00N 40°46' W 074°00'0 0.0
2017-Apr-24 16:30N 40°46' W 074°00'714.1
2017-Apr-24 16:00N 40°52' W 073°56'6 7.9
2017-Apr-24 15:12N 40°46' W 073°57'210.7
2017-Apr-24 15:00N 40°44' W 073°58'4 7.9
2017-Apr-24 14:30N 40°42' W 074°02'4 4.5
2017-Apr-24 13:30N 40°46' W 074°00'0 0.0
2017-Apr-24 13:00N 40°46' W 074°00'0 0.0
2017-Apr-24 12:29N 40°46' W 074°00'0 0.0
2017-Apr-24 01:23N 40°46' W 074°00'0 0.0
2017-Apr-24 00:59N 40°46' W 074°00'3 7.0
2017-Apr-24 00:30N 40°43' W 074°02'2 3.3
2017-Apr-24 00:00N 40°42' W 073°60'0 0.3
2017-Apr-23 23:31N 40°42' W 073°59'3 6.9
2017-Apr-23 23:00N 40°46' W 074°00'0 0.0
2017-Apr-23 22:26N 40°46' W 074°00'0 0.0
2017-Apr-23 21:59N 40°46' W 074°00'0 0.0
2017-Apr-23 21:29N 40°46' W 074°00'0 0.0
2017-Apr-23 20:59N 40°46' W 074°00'0 0.0
2017-Apr-23 20:29N 40°46' W 074°00'4 8.2
2017-Apr-23 20:00N 40°49' W 073°58'2 2.4
2017-Apr-23 19:10N 40°48' W 073°56'312.2
2017-Apr-23 18:58N 40°46' W 073°57'612.7
2017-Apr-23 18:30N 40°41' W 074°02'5 8.9
2017-Apr-23 18:00N 40°46' W 074°00'0 0.0
2017-Apr-23 17:28N 40°46' W 074°00'0 0.0
2017-Apr-23 16:58N 40°46' W 074°00'0 0.0
2017-Apr-23 16:28N 40°46' W 074°00'511.2
2017-Apr-23 16:00N 40°51' W 073°57'5 5.8
2017-Apr-23 15:07N 40°45' W 073°57'112.4
2017-Apr-23 15:00N 40°44' W 073°58'2 2.3
2017-Apr-23 14:00N 40°46' W 074°00'0 0.0
2017-Apr-23 13:30N 40°46' W 074°00'0 0.0
2017-Apr-23 02:31N 40°46' W 074°00'0 0.0
2017-Apr-23 02:30N 40°46' W 074°00'3 6.3
2017-Apr-23 02:00N 40°43' W 074°01'3 6.1
2017-Apr-23 01:30N 40°44' W 073°58'510.1
2017-Apr-23 01:01N 40°41' W 074°03'510.0
2017-Apr-23 00:30N 40°46' W 074°00'0 0.2
2017-Apr-23 00:00N 40°46' W 074°00'0 0.0
2017-Apr-22 23:30N 40°46' W 074°00'0 0.0
2017-Apr-22 23:00N 40°46' W 074°00'0 0.0
2017-Apr-22 22:30N 40°46' W 074°00'0 0.0
2017-Apr-22 22:00N 40°46' W 074°00'0 0.0
2017-Apr-22 21:30N 40°46' W 074°00'0 0.0
2017-Apr-22 21:01N 40°46' W 074°00'0 0.0
2017-Apr-22 20:30N 40°46' W 074°00'0 0.0
2017-Apr-22 20:00N 40°46' W 074°00'0 0.0
2017-Apr-22 19:29N 40°46' W 074°00'0 0.0
2017-Apr-22 19:00N 40°46' W 074°00'0 0.0
2017-Apr-22 18:30N 40°46' W 074°00'4 7.6
2017-Apr-22 18:00N 40°42' W 074°00'2 3.5
2017-Apr-22 17:30N 40°40' W 074°01'1 2.4
2017-Apr-22 17:00N 40°41' W 074°03'5 9.9
2017-Apr-22 16:30N 40°46' W 074°00'0 0.0
2017-Apr-22 16:00N 40°46' W 074°00'1 1.6
2017-Apr-22 15:30N 40°45' W 074°01'4 7.3
2017-Apr-22 15:00N 40°42' W 074°02'4 8.1
2017-Apr-22 14:28N 40°46' W 074°00'0 0.0
2017-Apr-22 13:28N 40°46' W 074°00'0 0.0
2017-Apr-21 20:26N 40°46' W 074°00'0 0.1
2017-Apr-21 20:00N 40°46' W 074°00'0 0.0
2017-Apr-21 19:30N 40°46' W 074°00'0 0.0
2017-Apr-21 19:00N 40°46' W 074°00'0 0.0
2017-Apr-21 18:30N 40°46' W 074°00'0 0.0
2017-Apr-21 18:00N 40°46' W 074°00'4 7.8
2017-Apr-21 17:30N 40°42' W 074°01'2 4.3
2017-Apr-21 17:00N 40°41' W 074°03'3 5.9
2017-Apr-21 16:30N 40°39' W 074°06'2 3.5
2017-Apr-21 16:00N 40°38' W 074°09'2 4.8
2017-Apr-21 15:30N 40°38' W 074°12'2 3.9
2017-Apr-21 14:59N 40°39' W 074°09'2 4.6
2017-Apr-21 14:29N 40°39' W 074°06'8 8.4
2017-Apr-21 13:30N 40°46' W 074°00'0 0.4
2017-Apr-21 13:00N 40°46' W 074°00'0 0.0
2017-Apr-21 12:30N 40°46' W 074°00'0 0.0
2017-Apr-21 12:00N 40°46' W 074°00'0 0.0
2017-Apr-20 23:01N 40°46' W 074°00'0 0.0
2017-Apr-20 22:58N 40°46' W 074°00'0 0.0
2017-Apr-20 22:28N 40°46' W 074°00'0 0.0
2017-Apr-20 21:58N 40°46' W 074°00'0 0.0
2017-Apr-20 21:28N 40°46' W 074°00'0 0.0
2017-Apr-20 20:58N 40°46' W 074°00'0 0.0
2017-Apr-20 20:28N 40°46' W 074°00'0 0.0
2017-Apr-20 19:58N 40°46' W 074°00'0 0.0
2017-Apr-20 19:28N 40°46' W 074°00'0 0.0
2017-Apr-20 18:58N 40°46' W 074°00'0 0.0
2017-Apr-19 00:59N 40°46' W 074°00'4 8.7
2017-Apr-19 00:30N 40°42' W 074°02'4 7.1
2017-Apr-19 00:01N 40°44' W 073°58'3 6.0
2017-Apr-18 23:30N 40°42' W 074°01'4 7.9
2017-Apr-18 23:00N 40°46' W 074°00'0 0.0
2017-Apr-18 22:28N 40°46' W 074°00'0 0.0
2017-Apr-18 21:58N 40°46' W 074°00'0 0.0
2017-Apr-18 21:28N 40°46' W 074°00'0 0.0
2017-Apr-18 20:58N 40°46' W 074°00'0 0.0
2017-Apr-18 20:25N 40°46' W 074°00'512.4
2017-Apr-18 20:00N 40°51' W 073°57'4 4.8
2017-Apr-18 19:04N 40°46' W 073°57'112.6
2017-Apr-18 19:00N 40°45' W 073°57'611.9
2017-Apr-18 18:30N 40°41' W 074°03'5 9.7
2017-Apr-18 17:59N 40°46' W 074°00'0 0.0
2017-Apr-18 17:29N 40°46' W 074°00'0 0.0
2017-Apr-18 16:59N 40°46' W 074°00'1 2.3
2017-Apr-18 16:31N 40°47' W 073°60'2 1.7
2017-Apr-18 15:07N 40°46' W 073°57'110.9
2017-Apr-18 15:00N 40°45' W 073°58'4 9.0
2017-Apr-18 14:30N 40°42' W 074°02'5 4.3
2017-Apr-18 13:28N 40°46' W 074°00'0 0.0
2017-Apr-18 12:58N 40°46' W 074°00'0 0.0
2017-Apr-18 01:37N 40°46' W 074°00'0 0.0
2017-Apr-18 01:30N 40°46' W 074°00'0 0.0
2017-Apr-18 01:00N 40°46' W 074°00'3 5.5
2017-Apr-18 00:30N 40°43' W 074°02'2 3.2
2017-Apr-18 00:00N 40°42' W 073°60'0 0.5
2017-Apr-17 23:31N 40°42' W 073°60'3 5.9
2017-Apr-17 22:55N 40°46' W 074°00'0 0.0
2017-Apr-17 22:28N 40°46' W 074°00'0 0.0
2017-Apr-17 21:58N 40°46' W 074°00'0 0.0
2017-Apr-17 21:28N 40°46' W 074°00'0 0.0
2017-Apr-17 20:59N 40°46' W 074°00'3 7.1
2017-Apr-17 20:30N 40°42' W 073°59'3 6.2
2017-Apr-17 20:00N 40°41' W 074°03'5 9.9
2017-Apr-17 19:30N 40°46' W 074°00'0 0.0
2017-Apr-17 18:58N 40°46' W 074°00'0 0.0
2017-Apr-17 18:30N 40°46' W 074°00'3 7.0
2017-Apr-17 18:01N 40°43' W 073°59'4 7.4
2017-Apr-17 17:31N 40°39' W 074°01'3 5.2
2017-Apr-17 17:00N 40°42' W 074°02'4 8.0
2017-Apr-17 16:29N 40°46' W 074°00'0 0.0
2017-Apr-17 15:59N 40°46' W 074°00'0 0.6
2017-Apr-17 15:30N 40°46' W 074°00'4 8.6
2017-Apr-17 15:01N 40°42' W 074°02'4 4.5
2017-Apr-17 14:00N 40°46' W 074°00'0 0.0
2017-Apr-17 13:30N 40°46' W 074°00'0 0.0
2017-Apr-17 13:00N 40°46' W 074°00'0 0.0
2017-Apr-16 20:27N 40°46' W 074°00'4 8.4
2017-Apr-16 20:01N 40°42' W 074°00'1 2.6
2017-Apr-16 19:30N 40°41' W 074°02'5 8.8
2017-Apr-16 19:00N 40°46' W 074°00'0 0.0
2017-Apr-16 18:28N 40°46' W 074°00'0 0.3
2017-Apr-16 18:00N 40°46' W 074°00'3 6.6
2017-Apr-16 17:30N 40°43' W 073°58'4 9.0
2017-Apr-16 17:01N 40°39' W 074°02'3 5.6
2017-Apr-16 16:30N 40°42' W 074°02'4 8.2
2017-Apr-16 16:00N 40°46' W 074°00'0 0.0
2017-Apr-16 15:30N 40°46' W 074°00'2 4.5
2017-Apr-16 15:01N 40°44' W 074°01'2 2.1
2017-Apr-16 13:58N 40°46' W 074°00'0 0.0
2017-Apr-16 01:20N 40°46' W 074°00'0 0.0
2017-Apr-16 01:00N 40°46' W 074°00'3 5.3
2017-Apr-16 00:30N 40°43' W 074°01'2 3.2
2017-Apr-16 00:00N 40°42' W 074°00'1 1.6
2017-Apr-15 23:31N 40°42' W 073°59'3 6.9
2017-Apr-15 23:00N 40°46' W 074°00'0 0.0
2017-Apr-15 22:30N 40°46' W 074°00'0 0.0
2017-Apr-15 22:00N 40°46' W 074°00'0 0.0
2017-Apr-15 21:30N 40°46' W 074°00'0 0.0
2017-Apr-15 21:00N 40°46' W 074°00'3 6.4
2017-Apr-15 20:31N 40°43' W 074°01'  

Dump ship's entire track history